createdAt,value
2018-05-14T00:01:22.865Z,110.37
2018-05-14T00:03:49.525Z,103.43
2018-05-14T00:06:16.011Z,103.53
2018-05-14T00:08:42.671Z,106.50
2018-05-14T00:11:09.171Z,102.90
2018-05-14T00:13:35.566Z,103.53
2018-05-14T00:16:01.882Z,96.80
2018-05-14T00:18:28.459Z,115.50
2018-05-14T00:20:54.662Z,110.33
2018-05-14T00:23:20.878Z,120.77
2018-05-14T00:25:47.806Z,112.53
2018-05-14T00:28:14.047Z,121.67
2018-05-14T00:30:41.006Z,105.83
2018-05-14T00:33:07.218Z,101.77
2018-05-14T00:35:33.434Z,99.47
2018-05-14T00:38:00.175Z,99.23
2018-05-14T00:40:26.439Z,105.90
2018-05-14T00:42:52.906Z,108.87
2018-05-14T00:45:20.556Z,107.23
2018-05-14T00:47:47.335Z,101.07
2018-05-14T00:50:13.736Z,121.00
2018-05-14T00:52:40.030Z,115.60
2018-05-14T00:55:16.490Z,114.97
2018-05-14T00:57:42.755Z,118.87
2018-05-14T01:00:09.065Z,105.77
2018-05-14T01:02:36.081Z,109.63
2018-05-14T01:05:02.318Z,111.00
2018-05-14T01:07:29.318Z,104.23
2018-05-14T01:09:55.561Z,89.60
2018-05-14T01:12:21.787Z,98.50
2018-05-14T01:14:47.997Z,96.80
2018-05-14T01:17:14.249Z,110.27
2018-05-14T01:19:40.515Z,102.47
2018-05-14T01:22:06.846Z,103.37
2018-05-14T01:24:33.051Z,118.47
2018-05-14T01:27:00.041Z,112.47
2018-05-14T01:29:26.262Z,106.60
2018-05-14T01:31:52.507Z,128.53
2018-05-14T01:34:18.714Z,97.87
2018-05-14T01:36:44.946Z,114.23
2018-05-14T01:39:11.257Z,103.30
2018-05-14T01:41:37.462Z,107.93
2018-05-14T01:44:04.449Z,103.23
2018-05-14T01:46:30.722Z,102.60
2018-05-14T01:48:56.948Z,111.77
2018-05-14T01:51:23.205Z,118.97
2018-05-14T01:53:49.466Z,109.87
2018-05-14T01:56:15.730Z,105.53
2018-05-14T01:58:42.013Z,118.60
2018-05-14T02:01:08.326Z,106.20
2018-05-14T02:03:34.562Z,109.40
2018-05-14T02:06:00.794Z,104.30
2018-05-14T02:08:27.052Z,121.30
2018-05-14T02:10:53.239Z,115.17
2018-05-14T02:13:19.450Z,100.97
2018-05-14T02:15:45.687Z,111.10
2018-05-14T02:18:11.878Z,108.90
2018-05-14T02:20:38.861Z,117.90
2018-05-14T02:23:05.153Z,112.10
2018-05-14T02:25:31.390Z,116.67
2018-05-14T02:27:57.648Z,116.87
2018-05-14T02:30:23.887Z,123.73
2018-05-14T02:32:50.111Z,107.43
2018-05-14T02:35:16.338Z,118.07
2018-05-14T02:37:42.550Z,126.90
2018-05-14T02:40:08.799Z,120.37
2018-05-14T02:42:35.065Z,130.03
2018-05-14T02:45:01.279Z,127.20
2018-05-14T02:47:27.529Z,130.90
2018-05-14T02:49:53.853Z,139.53
2018-05-14T02:52:20.051Z,133.43
2018-05-14T02:54:47.051Z,114.57
2018-05-14T02:57:13.325Z,121.47
2018-05-14T02:59:40.330Z,132.03
2018-05-14T03:02:06.618Z,123.87
2018-05-14T03:04:32.996Z,120.60
2018-05-14T03:06:59.990Z,127.77
2018-05-14T03:09:26.938Z,138.67
2018-05-14T03:11:53.211Z,122.67
2018-05-14T03:14:19.447Z,134.50
2018-05-14T03:16:45.765Z,119.83
2018-05-14T03:19:12.011Z,125.50
2018-05-14T03:21:38.238Z,123.93
2018-05-14T03:24:04.477Z,118.87
2018-05-14T03:26:30.728Z,127.07
2018-05-14T03:28:56.985Z,125.53
2018-05-14T03:31:23.210Z,116.43
2018-05-14T03:33:49.479Z,119.73
2018-05-14T03:36:15.738Z,111.67
2018-05-14T03:38:42.762Z,123.00
2018-05-14T03:41:08.985Z,123.53
2018-05-14T03:43:35.223Z,113.27
2018-05-14T03:46:01.510Z,116.37
2018-05-14T03:48:28.576Z,117.83
2018-05-14T03:50:54.815Z,114.27
2018-05-14T03:53:21.884Z,114.37
2018-05-14T03:55:48.127Z,114.13
2018-05-14T03:58:26.737Z,134.47
2018-05-14T04:01:05.362Z,113.40
2018-05-14T04:03:43.981Z,106.43
2018-05-14T04:06:22.505Z,107.53
2018-05-14T04:08:48.990Z,106.73
2018-05-14T04:11:15.193Z,97.53
2018-05-14T04:13:42.238Z,130.23
2018-05-14T04:16:08.478Z,123.00
2018-05-14T04:18:34.745Z,117.13
2018-05-14T04:21:00.978Z,122.27
2018-05-14T04:23:27.257Z,110.70
2018-05-14T04:25:53.567Z,114.33
2018-05-14T04:28:19.821Z,103.80
2018-05-14T04:30:46.840Z,106.70
2018-05-14T04:33:13.246Z,102.37
2018-05-14T04:35:40.323Z,108.77
2018-05-14T04:38:06.592Z,100.13
2018-05-14T04:40:32.918Z,104.87
2018-05-14T04:42:59.874Z,84.30
2018-05-14T04:45:26.116Z,86.83
2018-05-14T04:47:52.450Z,92.90
2018-05-14T04:50:18.735Z,95.70
2018-05-14T04:52:45.146Z,97.10
2018-05-14T04:55:12.102Z,101.00
2018-05-14T04:57:38.518Z,97.53
2018-05-14T05:00:04.931Z,104.70
2018-05-14T05:02:31.182Z,93.83
2018-05-14T05:04:57.434Z,94.30
2018-05-14T05:07:23.740Z,87.33
2018-05-14T05:09:49.978Z,92.30
2018-05-14T05:12:16.240Z,93.77
2018-05-14T05:14:42.545Z,98.50
2018-05-14T05:17:08.924Z,120.33
2018-05-14T05:19:35.189Z,119.23
2018-05-14T05:22:01.502Z,101.13
2018-05-14T05:24:27.762Z,105.27
2018-05-14T05:26:54.206Z,95.83
2018-05-14T05:29:20.441Z,86.73
2018-05-14T05:31:46.683Z,94.50
2018-05-14T05:34:13.726Z,90.33
2018-05-14T05:36:40.006Z,90.80
2018-05-14T05:39:07.007Z,78.17
2018-05-14T05:41:33.320Z,88.77
2018-05-14T05:44:00.262Z,87.43
2018-05-14T05:46:26.534Z,90.33
2018-05-14T05:48:52.877Z,92.20
2018-05-14T05:51:19.117Z,78.03
2018-05-14T05:53:45.356Z,83.80
2018-05-14T05:56:11.581Z,90.83
2018-05-14T05:58:38.974Z,82.50
2018-05-14T06:01:05.919Z,102.97
2018-05-14T06:03:33.397Z,96.00
2018-05-14T06:05:59.666Z,92.43
2018-05-14T06:08:25.999Z,86.73
2018-05-14T06:10:52.253Z,96.67
2018-05-14T06:13:18.563Z,94.17
2018-05-14T06:15:44.782Z,85.20
2018-05-14T06:18:11.266Z,80.20
2018-05-14T06:20:37.648Z,96.53
2018-05-14T06:23:04.018Z,77.20
2018-05-14T06:25:30.263Z,87.83
2018-05-14T06:27:56.617Z,94.83
2018-05-14T06:30:22.963Z,87.13
2018-05-14T06:32:50.282Z,82.07
2018-05-14T06:35:16.514Z,79.07
2018-05-14T06:37:43.706Z,87.40
2018-05-14T06:40:09.959Z,79.27
2018-05-14T06:42:36.291Z,99.40
2018-05-14T06:45:03.382Z,90.07
2018-05-14T06:47:30.072Z,82.40
2018-05-14T06:49:56.449Z,78.43
2018-05-14T06:52:22.634Z,89.27
2018-05-14T06:54:48.859Z,87.33
2018-05-14T06:57:15.198Z,80.20
2018-05-14T06:59:41.435Z,83.00
2018-05-14T07:02:07.738Z,90.03
2018-05-14T07:04:34.038Z,91.53
2018-05-14T07:07:00.314Z,90.57
2018-05-14T07:09:26.674Z,96.20
2018-05-14T07:11:53.704Z,102.53
2018-05-14T07:14:19.973Z,105.50
2018-05-14T07:16:46.255Z,96.07
2018-05-14T07:19:13.650Z,109.90
2018-05-14T07:21:39.942Z,95.33
2018-05-14T07:24:06.219Z,94.47
2018-05-14T07:26:32.418Z,96.83
2018-05-14T07:28:58.703Z,112.63
2018-05-14T07:31:24.950Z,110.77
2018-05-14T07:33:51.218Z,110.70
2018-05-14T07:36:18.333Z,100.83
2018-05-14T07:38:45.214Z,109.23
2018-05-14T07:41:11.426Z,101.33
2018-05-14T07:43:37.704Z,112.97
2018-05-14T07:46:04.043Z,116.90
2018-05-14T07:48:30.358Z,116.33
2018-05-14T07:50:56.627Z,102.67
2018-05-14T07:53:22.914Z,100.33
2018-05-14T07:55:49.929Z,98.43
2018-05-14T07:58:16.190Z,94.70
2018-05-14T08:00:42.413Z,115.80
2018-05-14T08:03:08.682Z,108.87
2018-05-14T08:05:35.024Z,111.37
2018-05-14T08:08:01.286Z,102.23
2018-05-14T08:10:28.538Z,104.13
2018-05-14T08:12:54.797Z,106.20
2018-05-14T08:15:21.114Z,104.50
2018-05-14T08:17:47.374Z,128.73
2018-05-14T08:20:14.351Z,101.73
2018-05-14T08:22:40.648Z,95.00
2018-05-14T08:25:06.890Z,100.10
2018-05-14T08:27:33.246Z,92.47
2018-05-14T08:30:00.318Z,98.37
2018-05-14T08:32:27.313Z,96.23
2018-05-14T08:34:53.519Z,90.03
2018-05-14T08:37:19.760Z,95.47
2018-05-14T08:39:46.061Z,93.33
2018-05-14T08:42:12.365Z,90.67
2018-05-14T08:44:38.639Z,96.00
2018-05-14T08:47:04.886Z,98.97
2018-05-14T08:49:31.141Z,94.17
2018-05-14T08:51:57.403Z,104.03
2018-05-14T08:54:23.765Z,101.23
2018-05-14T08:56:49.946Z,103.67
2018-05-14T08:59:16.170Z,96.67
2018-05-14T09:01:42.444Z,102.77
2018-05-14T09:04:08.678Z,104.13
2018-05-14T09:06:34.946Z,98.20
2018-05-14T09:09:01.154Z,89.93
2018-05-14T09:11:28.173Z,96.70
2018-05-14T09:13:54.449Z,95.03
2018-05-14T09:16:20.727Z,89.97
2018-05-14T09:18:47.004Z,82.93
2018-05-14T09:21:13.238Z,84.07
2018-05-14T09:23:39.508Z,87.73
2018-05-14T09:26:05.880Z,86.77
2018-05-14T09:28:32.151Z,82.73
2018-05-14T09:30:58.422Z,85.30
2018-05-14T09:33:25.053Z,90.53
2018-05-14T09:35:53.478Z,80.20
2018-05-14T09:38:21.600Z,89.27
2018-05-14T09:40:50.411Z,76.90
2018-05-14T09:43:19.357Z,75.30
2018-05-14T09:45:57.575Z,81.73
2018-05-14T09:48:26.219Z,77.03
2018-05-14T09:50:57.884Z,71.07
2018-05-14T09:53:25.314Z,75.27
2018-05-14T09:55:52.605Z,69.47
2018-05-14T09:58:19.083Z,76.77
2018-05-14T10:00:45.438Z,73.67
2018-05-14T10:03:11.790Z,75.37
2018-05-14T10:05:38.099Z,70.07
2018-05-14T10:08:05.185Z,66.80
2018-05-14T10:10:31.429Z,69.43
2018-05-14T10:12:57.813Z,69.37
2018-05-14T10:15:24.226Z,73.77
2018-05-14T10:17:50.602Z,67.50
2018-05-14T10:20:16.994Z,71.50
2018-05-14T10:22:43.359Z,67.30
2018-05-14T10:25:09.653Z,67.60
2018-05-14T10:27:36.622Z,70.30
2018-05-14T10:30:03.681Z,62.33
2018-05-14T10:32:30.230Z,61.17
2018-05-14T10:34:56.582Z,54.57
2018-05-14T10:37:22.918Z,62.33
2018-05-14T10:39:49.220Z,59.90
2018-05-14T10:42:15.510Z,55.00
2018-05-14T10:44:41.831Z,55.20
2018-05-14T10:47:08.115Z,52.37
2018-05-14T10:49:34.420Z,55.60
2018-05-14T10:52:00.739Z,51.73
2018-05-14T10:54:26.998Z,50.93
2018-05-14T10:56:53.254Z,51.43
2018-05-14T10:59:19.498Z,51.53
2018-05-14T11:01:45.718Z,56.77
2018-05-14T11:04:12.076Z,52.03
2018-05-14T11:06:38.395Z,47.17
2018-05-14T11:09:05.434Z,48.17
2018-05-14T11:11:31.761Z,53.20
2018-05-14T11:13:57.986Z,47.83
2018-05-14T11:16:24.198Z,45.83
2018-05-14T11:18:50.523Z,43.93
2018-05-14T11:21:16.786Z,48.07
2018-05-14T11:23:49.915Z,45.97
2018-05-14T11:26:23.186Z,49.90
2018-05-14T11:28:55.576Z,48.63
2018-05-14T11:31:21.922Z,47.03
2018-05-14T11:33:48.241Z,43.67
2018-05-14T11:36:14.532Z,41.90
2018-05-14T11:38:40.771Z,46.37
2018-05-14T11:41:07.058Z,39.83
2018-05-14T11:43:33.341Z,144.07
2018-05-14T11:45:59.574Z,41.20
2018-05-14T11:48:26.622Z,32.37
2018-05-14T11:50:52.982Z,34.47
2018-05-14T11:54:33.658Z,36.00
2018-05-14T11:56:59.907Z,38.40
2018-05-14T11:59:26.138Z,29.20
2018-05-14T12:01:52.369Z,33.43
2018-05-14T12:04:18.646Z,31.53
2018-05-14T12:06:44.866Z,30.13
2018-05-14T12:09:11.146Z,27.47
2018-05-14T12:11:38.146Z,32.20
2018-05-14T12:14:04.466Z,30.80
2018-05-14T12:16:30.861Z,28.93
2018-05-14T12:18:57.886Z,29.00
2018-05-14T12:21:24.253Z,26.43
2018-05-14T12:23:50.485Z,20.50
2018-05-14T12:26:17.511Z,23.57
2018-05-14T12:28:43.727Z,22.93
2018-05-14T12:31:10.034Z,27.53
2018-05-14T12:33:37.031Z,27.50
2018-05-14T12:36:03.573Z,24.87
2018-05-14T12:38:30.126Z,36.83
2018-05-14T12:40:56.384Z,29.60
2018-05-14T12:43:22.601Z,29.90
2018-05-14T12:45:48.906Z,43.90
2018-05-14T12:48:15.978Z,33.73
2018-05-14T12:50:42.213Z,22.17
2018-05-14T12:53:08.505Z,44.20
2018-05-14T12:55:34.782Z,61.47
2018-05-14T12:58:01.047Z,158.30
2018-05-14T13:00:28.484Z,55.07
2018-05-14T13:02:54.834Z,104.47
2018-05-14T13:05:21.054Z,50.93
2018-05-14T13:07:47.310Z,40.33
2018-05-14T13:10:14.362Z,25.77
2018-05-14T13:12:40.630Z,26.93
2018-05-14T13:15:07.618Z,63.07
2018-05-14T13:17:34.147Z,34.53
2018-05-14T13:20:00.675Z,22.23
2018-05-14T13:22:27.130Z,18.20
2018-05-14T13:24:53.857Z,27.83
2018-05-14T13:27:20.454Z,17.13
2018-05-14T13:29:46.718Z,25.50
2018-05-14T13:32:13.031Z,17.40
2018-05-14T13:34:39.639Z,21.10
2018-05-14T13:37:06.227Z,18.07
2018-05-14T13:39:32.517Z,12.70
2018-05-14T13:41:58.871Z,16.80
2018-05-14T13:44:25.942Z,12.93
2018-05-14T13:46:52.552Z,17.40
2018-05-14T13:49:20.079Z,9.03
2018-05-14T13:51:46.700Z,15.27
2018-05-14T13:54:13.752Z,12.70
2018-05-14T13:56:40.538Z,10.83
2018-05-14T13:59:07.656Z,10.03
2018-05-14T14:01:33.948Z,15.17
2018-05-14T14:04:00.620Z,13.20
2018-05-14T14:06:27.110Z,8.07
2018-05-14T14:08:53.682Z,8.50
2018-05-14T14:11:20.489Z,11.43
2018-05-14T14:13:46.755Z,61.73
2018-05-14T14:16:13.145Z,50.87
2018-05-14T14:18:40.037Z,18.27
2018-05-14T14:21:06.380Z,14.00
2018-05-14T14:23:32.977Z,14.40
2018-05-14T14:25:59.179Z,19.50
2018-05-14T14:28:25.799Z,17.63
2018-05-14T14:30:52.244Z,13.60
2018-05-14T14:33:18.728Z,10.07
2018-05-14T14:35:45.983Z,15.27
2018-05-14T14:38:13.177Z,9.03
2018-05-14T14:40:39.716Z,5.67
2018-05-14T14:43:06.464Z,8.10
2018-05-14T14:45:33.403Z,10.70
2018-05-14T14:47:59.867Z,8.50
2018-05-14T14:50:26.368Z,10.83
2018-05-14T14:52:53.056Z,17.90
2018-05-14T14:55:19.359Z,21.93
2018-05-14T14:57:45.611Z,21.83
2018-05-14T15:00:11.868Z,33.93
2018-05-14T15:02:38.858Z,20.63
2018-05-14T15:05:05.543Z,13.80
2018-05-14T15:07:32.262Z,5.70
2018-05-14T15:09:58.611Z,12.63
2018-05-14T15:12:25.442Z,11.83
2018-05-14T15:14:52.663Z,12.87
2018-05-14T15:17:18.979Z,9.90
2018-05-14T15:19:47.654Z,5.43
2018-05-14T15:22:14.742Z,4.50
2018-05-14T15:24:41.704Z,4.40
2018-05-14T15:27:09.343Z,9.30
2018-05-14T15:29:35.779Z,10.53
2018-05-14T15:32:02.062Z,6.30
2018-05-14T15:34:28.848Z,9.00
2018-05-14T15:36:55.524Z,14.90
2018-05-14T15:39:22.614Z,27.10
2018-05-14T15:41:48.963Z,128.93
2018-05-14T15:44:15.362Z,25.43
2018-05-14T15:46:41.695Z,44.83
2018-05-14T15:49:08.128Z,130.63
2018-05-14T15:51:34.638Z,24.10
2018-05-14T15:54:00.882Z,38.63
2018-05-14T15:56:27.540Z,23.67
2018-05-14T15:58:53.806Z,11.50
2018-05-14T16:01:20.507Z,23.10
2018-05-14T16:03:46.825Z,8.70
2018-05-14T16:06:13.391Z,8.53
2018-05-14T16:08:39.725Z,11.10
2018-05-14T16:11:06.278Z,9.93
2018-05-14T16:13:32.787Z,9.60
2018-05-14T16:16:00.283Z,19.67
2018-05-14T16:18:27.272Z,11.60
2018-05-14T16:20:54.470Z,13.80
2018-05-14T16:23:21.663Z,7.13
2018-05-14T16:25:48.862Z,6.77
2018-05-14T16:28:15.826Z,7.70
2018-05-14T16:30:42.310Z,17.20
2018-05-14T16:33:08.574Z,8.97
2018-05-14T16:35:35.837Z,3.67
2018-05-14T16:38:02.663Z,5.17
2018-05-14T16:40:29.192Z,7.93
2018-05-14T16:42:55.795Z,6.77
2018-05-14T16:45:22.183Z,4.17
2018-05-14T16:47:48.641Z,7.13
2018-05-14T16:50:15.948Z,8.33
2018-05-14T16:52:42.579Z,10.87
2018-05-14T16:55:09.462Z,8.30
2018-05-14T16:57:36.025Z,4.73
2018-05-14T17:00:02.549Z,6.90
2018-05-14T17:02:29.493Z,6.23
2018-05-14T17:04:55.920Z,17.20
2018-05-14T17:07:22.529Z,7.97
2018-05-14T17:09:49.896Z,5.33
2018-05-14T17:12:17.198Z,5.83
2018-05-14T17:14:43.547Z,30.57
2018-05-14T17:17:10.824Z,51.03
2018-05-14T17:19:37.371Z,316.43
2018-05-14T17:22:03.671Z,67.80
2018-05-14T17:24:30.394Z,69.00
2018-05-14T17:27:02.802Z,86.57
2018-05-14T17:29:29.630Z,38.40
2018-05-14T17:31:56.734Z,26.40
2018-05-14T17:34:23.055Z,11.30
2018-05-14T17:36:49.339Z,30.90
2018-05-14T17:39:15.634Z,7.40
2018-05-14T17:41:41.878Z,14.30
2018-05-14T17:44:08.105Z,12.43
2018-05-14T17:46:34.421Z,5.33
2018-05-14T17:49:00.647Z,12.57
2018-05-14T17:51:26.921Z,10.80
2018-05-14T17:53:53.246Z,7.87
2018-05-14T17:56:19.484Z,12.77
2018-05-14T17:58:46.481Z,6.00
2018-05-14T18:01:12.841Z,9.00
2018-05-14T18:03:39.110Z,5.63
2018-05-14T18:06:05.575Z,8.80
2018-05-14T18:08:31.893Z,8.10
2018-05-14T18:10:58.320Z,8.73
2018-05-14T18:13:24.482Z,94.83
2018-05-14T18:15:50.746Z,234.97
2018-05-14T18:18:17.004Z,203.90
2018-05-14T18:20:44.042Z,45.50
2018-05-14T18:23:16.450Z,28.07
2018-05-14T18:25:49.490Z,22.67
2018-05-14T18:28:15.999Z,7.30
2018-05-14T18:30:42.558Z,13.17
2018-05-14T18:33:10.738Z,9.00
2018-05-14T18:35:37.055Z,7.30
2018-05-14T18:38:04.299Z,5.50
2018-05-14T18:40:30.575Z,8.87
2018-05-14T18:42:57.029Z,5.53
2018-05-14T18:45:24.614Z,4.50
2018-05-14T18:47:51.178Z,8.70
2018-05-14T18:50:17.574Z,4.93
2018-05-14T18:52:43.971Z,6.90
2018-05-14T18:55:10.374Z,5.67
2018-05-14T18:57:36.666Z,7.43
2018-05-14T19:00:02.973Z,3.70
2018-05-14T19:02:30.035Z,15.30
2018-05-14T19:04:56.298Z,4.20
2018-05-14T19:07:22.558Z,5.33
2018-05-14T19:09:49.566Z,6.27
2018-05-14T19:12:15.828Z,10.13
2018-05-14T19:14:50.168Z,12.27
2018-05-14T19:17:22.566Z,10.83
2018-05-14T19:19:49.594Z,5.37
2018-05-14T19:22:22.178Z,11.43
2018-05-14T19:24:49.146Z,55.83
2018-05-14T19:27:15.916Z,31.47
2018-05-14T19:29:42.198Z,8.20
2018-05-14T19:32:11.039Z,5.27
2018-05-14T19:34:45.022Z,6.10
2018-05-14T19:37:12.031Z,6.40
2018-05-14T19:39:44.480Z,17.40
2018-05-14T19:42:11.065Z,5.90
2018-05-14T19:44:37.386Z,5.47
2018-05-14T19:47:04.858Z,7.80
2018-05-14T19:49:31.137Z,6.53
2018-05-14T19:51:57.559Z,5.03
2018-05-14T19:54:24.628Z,7.03
2018-05-14T19:56:51.055Z,6.03
2018-05-14T19:59:17.305Z,6.87
2018-05-14T20:01:43.820Z,11.73
2018-05-14T20:04:10.933Z,8.50
2018-05-14T20:06:37.363Z,5.20
2018-05-14T20:09:04.515Z,10.33
2018-05-14T20:11:31.005Z,8.03
2018-05-14T20:13:57.238Z,9.00
2018-05-14T20:16:23.463Z,8.27
2018-05-14T20:18:49.741Z,6.87
2018-05-14T20:21:16.046Z,11.23
2018-05-14T20:23:43.151Z,6.70
2018-05-14T20:26:09.558Z,6.30
2018-05-14T20:28:35.858Z,5.27
2018-05-14T20:31:02.353Z,9.13
2018-05-14T20:33:28.844Z,6.40
2018-05-14T20:35:56.006Z,7.37
2018-05-14T20:38:23.125Z,7.83
2018-05-14T20:40:50.455Z,9.00
2018-05-14T20:43:17.615Z,7.30
2018-05-14T20:45:43.980Z,9.93
2018-05-14T20:48:10.357Z,11.33
2018-05-14T20:50:36.707Z,6.30
2018-05-14T20:53:03.748Z,7.50
2018-05-14T20:55:30.915Z,6.20
2018-05-14T20:57:57.214Z,14.03
2018-05-14T21:00:23.675Z,7.87
2018-05-14T21:02:50.943Z,7.20
2018-05-14T21:05:17.223Z,8.07
2018-05-14T21:07:44.370Z,8.73
2018-05-14T21:10:10.931Z,6.70
2018-05-14T21:12:38.305Z,11.03
2018-05-14T21:15:05.515Z,6.40
2018-05-14T21:17:31.812Z,11.50
2018-05-14T21:19:58.878Z,8.60
2018-05-14T21:22:25.899Z,8.50
2018-05-14T21:24:52.134Z,8.57
2018-05-14T21:27:18.356Z,5.47
2018-05-14T21:29:44.618Z,7.93
2018-05-14T21:32:10.907Z,5.93
2018-05-14T21:34:37.154Z,9.13
2018-05-14T21:37:03.603Z,12.10
2018-05-14T21:39:30.423Z,9.47
2018-05-14T21:41:56.672Z,11.70
2018-05-14T21:44:23.031Z,12.50
2018-05-14T21:46:49.301Z,10.63
2018-05-14T21:49:15.818Z,7.53
2018-05-14T21:51:42.089Z,7.07
2018-05-14T21:54:08.495Z,8.80
2018-05-14T21:56:35.134Z,15.43
2018-05-14T21:59:01.613Z,12.33
2018-05-14T22:01:27.973Z,9.10
2018-05-14T22:03:55.216Z,6.17
2018-05-14T22:06:21.545Z,19.03
2018-05-14T22:08:48.881Z,13.80
2018-05-14T22:11:15.430Z,10.77
2018-05-14T22:13:41.699Z,7.00
2018-05-14T22:16:08.017Z,16.90
2018-05-14T22:18:34.243Z,10.90
2018-05-14T22:21:00.649Z,9.83
2018-05-14T22:23:27.011Z,6.80
2018-05-14T22:25:53.248Z,8.77
2018-05-14T22:28:19.503Z,9.43
2018-05-14T22:30:45.715Z,9.33
2018-05-14T22:33:12.655Z,7.13
2018-05-14T22:35:39.280Z,11.37
2018-05-14T22:38:06.339Z,9.63
2018-05-14T22:40:32.588Z,7.27
2018-05-14T22:42:59.558Z,12.00
2018-05-14T22:45:25.825Z,11.50
2018-05-14T22:47:52.505Z,11.23
2018-05-14T22:50:18.726Z,8.93
2018-05-14T22:52:45.259Z,10.40
2018-05-14T22:55:11.501Z,7.10
2018-05-14T22:57:37.808Z,10.33
2018-05-14T23:00:04.126Z,9.30
2018-05-14T23:02:30.409Z,11.37
2018-05-14T23:04:57.398Z,7.90
2018-05-14T23:07:23.703Z,12.30
2018-05-14T23:09:50.154Z,11.23
2018-05-14T23:12:16.562Z,13.13
2018-05-14T23:14:42.954Z,7.73
2018-05-14T23:17:09.194Z,8.10
2018-05-14T23:19:35.446Z,9.30
2018-05-14T23:22:01.671Z,13.80
2018-05-14T23:24:27.891Z,9.63
2018-05-14T23:26:55.038Z,11.17
2018-05-14T23:29:22.030Z,12.50
2018-05-14T23:31:56.334Z,16.90
2018-05-14T23:34:22.549Z,19.03
2018-05-14T23:36:48.814Z,8.03
2018-05-14T23:39:15.781Z,8.43
2018-05-14T23:41:41.986Z,10.13
2018-05-14T23:44:08.225Z,7.67
2018-05-14T23:46:34.446Z,5.87
2018-05-14T23:49:01.532Z,8.50
2018-05-14T23:51:27.756Z,9.10
2018-05-14T23:53:54.067Z,10.13
2018-05-14T23:56:26.287Z,10.57
2018-05-14T23:58:59.250Z,10.63
